GAP2788 RPVP-RPLL
Flight info
| Callsign | GAP2788 |
|---|---|
| Flight time | 0h 55m |
| Altitude | 35000 |
| Route | DABOY1E DABOY W281 LEGED N884 LUBAN LUBAN5R |
| Aircraft | A320/M-SDE3FGHIRWY/LB1 |
Departure
| Time | 2026-04-15 14:33 |
|---|---|
| Airport | Puerto Princesa International Airport / PAF Antonio Bautista Air Base (RPVP) |
Arrival
| Time | 2026-04-15 15:28 |
|---|---|
| Airport | Ninoy Aquino International Airport (RPLL) |
| Time | Latitude | Longitude | Altitude | Speed | Heading |
|---|---|---|---|---|---|
| 2026-04-15 13:58 | 9.74506 | 118.75117 | 75 ft | 0 kts | 2° |
| 2026-04-15 14:23 | 9.74497 | 118.75117 | 75 ft | 2 kts | 1° |
| 2026-04-15 14:24 | 9.74481 | 118.75116 | 75 ft | 2 kts | 2° |
| 2026-04-15 14:24 | 9.74466 | 118.75115 | 75 ft | 2 kts | 2° |
| 2026-04-15 14:24 | 9.74451 | 118.75114 | 75 ft | 2 kts | 353° |
| 2026-04-15 14:24 | 9.74437 | 118.75119 | 75 ft | 2 kts | 335° |
| 2026-04-15 14:25 | 9.74425 | 118.75127 | 75 ft | 2 kts | 317° |
| 2026-04-15 14:25 | 9.74415 | 118.75138 | 75 ft | 2 kts | 300° |
| 2026-04-15 14:25 | 9.74409 | 118.75152 | 75 ft | 2 kts | 283° |
| 2026-04-15 14:25 | 9.74407 | 118.75166 | 75 ft | 2 kts | 269° |
| 2026-04-15 14:26 | 9.74407 | 118.75181 | 75 ft | 2 kts | 274° |
| 2026-04-15 14:26 | 9.74406 | 118.75196 | 75 ft | 1 kts | 272° |
| 2026-04-15 14:26 | 9.74406 | 118.75197 | 75 ft | 0 kts | 272° |
| 2026-04-15 14:29 | 9.74406 | 118.75196 | 75 ft | 1 kts | 272° |
| 2026-04-15 14:29 | 9.74407 | 118.75169 | 75 ft | 6 kts | 272° |
| 2026-04-15 14:30 | 9.74409 | 118.75111 | 75 ft | 9 kts | 272° |
| 2026-04-15 14:30 | 9.74413 | 118.75040 | 75 ft | 10 kts | 272° |
| 2026-04-15 14:30 | 9.74417 | 118.74960 | 75 ft | 12 kts | 272° |
| 2026-04-15 14:30 | 9.74421 | 118.74869 | 75 ft | 13 kts | 272° |
| 2026-04-15 14:31 | 9.74425 | 118.74775 | 75 ft | 12 kts | 271° |
| 2026-04-15 14:31 | 9.74400 | 118.74712 | 75 ft | 9 kts | 218° |
| 2026-04-15 14:31 | 9.74378 | 118.74706 | 75 ft | 5 kts | 181° |
| 2026-04-15 14:31 | 9.74324 | 118.74706 | 75 ft | 6 kts | 180° |
| 2026-04-15 14:32 | 9.74276 | 118.74707 | 75 ft | 6 kts | 167° |
| 2026-04-15 14:32 | 9.74256 | 118.74746 | 75 ft | 7 kts | 91° |
| 2026-04-15 14:32 | 9.74254 | 118.74799 | 75 ft | 5 kts | 92° |
| 2026-04-15 14:32 | 9.74253 | 118.74834 | 75 ft | 6 kts | 92° |
| 2026-04-15 14:33 | 9.74243 | 118.75068 | 76 ft | 74 kts | 93° |
| 2026-04-15 14:33 | 9.74208 | 118.75863 | 82 ft | 146 kts | 92° |
| 2026-04-15 14:33 | 9.74169 | 118.76943 | 632 ft | 159 kts | 92° |
| 2026-04-15 14:33 | 9.74104 | 118.78050 | 1412 ft | 162 kts | 85° |
| 2026-04-15 14:34 | 9.74573 | 118.79022 | 2147 ft | 161 kts | 37° |
| 2026-04-15 14:34 | 9.75664 | 118.79420 | 2614 ft | 177 kts | 14° |
| 2026-04-15 14:34 | 9.76944 | 118.79702 | 3078 ft | 194 kts | 14° |
| 2026-04-15 14:34 | 9.78305 | 118.80034 | 3560 ft | 211 kts | 16° |
| 2026-04-15 14:35 | 9.79307 | 118.80302 | 3805 ft | 228 kts | 17° |
| 2026-04-15 14:35 | 9.81422 | 118.80911 | 4717 ft | 243 kts | 18° |
| 2026-04-15 14:35 | 9.83044 | 118.81394 | 5586 ft | 246 kts | 18° |
| 2026-04-15 14:35 | 9.84680 | 118.81890 | 6411 ft | 249 kts | 18° |
| 2026-04-15 14:36 | 9.86336 | 118.82396 | 7226 ft | 252 kts | 18° |
| 2026-04-15 14:36 | 9.88042 | 118.82909 | 7988 ft | 256 kts | 16° |
| 2026-04-15 14:36 | 9.89854 | 118.83228 | 8501 ft | 272 kts | 6° |
| 2026-04-15 14:36 | 9.91804 | 118.83260 | 9046 ft | 286 kts | 0° |
| 2026-04-15 14:37 | 9.93807 | 118.83200 | 9762 ft | 290 kts | 360° |
| 2026-04-15 14:37 | 9.95848 | 118.83126 | 10450 ft | 295 kts | 360° |
| 2026-04-15 14:37 | 9.97934 | 118.83054 | 10829 ft | 311 kts | 360° |
| 2026-04-15 14:37 | 10.00202 | 118.82981 | 11157 ft | 329 kts | 360° |
| 2026-04-15 14:38 | 10.02587 | 118.82908 | 11442 ft | 347 kts | 360° |
| 2026-04-15 14:38 | 10.05063 | 118.82832 | 11729 ft | 362 kts | 360° |
| 2026-04-15 14:38 | 10.07652 | 118.82751 | 12249 ft | 370 kts | 360° |
| 2026-04-15 14:38 | 10.10263 | 118.82671 | 12908 ft | 372 kts | 360° |
| 2026-04-15 14:39 | 10.12903 | 118.82591 | 13532 ft | 375 kts | 360° |
| 2026-04-15 14:39 | 10.15550 | 118.82512 | 14101 ft | 379 kts | 0° |
| 2026-04-15 14:39 | 10.18193 | 118.82436 | 14668 ft | 383 kts | 0° |
| 2026-04-15 14:39 | 10.20918 | 118.82355 | 15217 ft | 387 kts | 0° |
| 2026-04-15 14:40 | 10.23643 | 118.82275 | 15765 ft | 390 kts | 0° |
| 2026-04-15 14:40 | 10.26396 | 118.82192 | 16302 ft | 393 kts | 0° |
| 2026-04-15 14:40 | 10.29156 | 118.82108 | 16842 ft | 396 kts | 0° |
| 2026-04-15 14:40 | 10.31959 | 118.82024 | 17361 ft | 400 kts | 1° |
| 2026-04-15 14:41 | 10.34752 | 118.81940 | 17878 ft | 402 kts | 1° |
| 2026-04-15 14:41 | 10.37576 | 118.81857 | 18371 ft | 405 kts | 0° |
| 2026-04-15 14:41 | 10.40420 | 118.81812 | 18849 ft | 408 kts | 2° |
| 2026-04-15 14:41 | 10.43314 | 118.81927 | 19324 ft | 410 kts | 5° |
| 2026-04-15 14:42 | 10.46179 | 118.82121 | 19793 ft | 413 kts | 6° |
| 2026-04-15 14:42 | 10.49104 | 118.82330 | 20238 ft | 416 kts | 6° |
| 2026-04-15 14:42 | 10.52007 | 118.82537 | 20655 ft | 420 kts | 6° |
| 2026-04-15 14:42 | 10.54971 | 118.82747 | 21083 ft | 423 kts | 5° |
| 2026-04-15 14:43 | 10.57908 | 118.82955 | 21487 ft | 427 kts | 5° |
| 2026-04-15 14:43 | 10.60903 | 118.83165 | 21904 ft | 430 kts | 5° |
| 2026-04-15 14:43 | 10.63918 | 118.83378 | 22318 ft | 432 kts | 5° |
| 2026-04-15 14:43 | 10.66967 | 118.83592 | 22730 ft | 435 kts | 5° |
| 2026-04-15 14:44 | 10.70021 | 118.83807 | 23138 ft | 438 kts | 5° |
| 2026-04-15 14:44 | 10.73067 | 118.84021 | 23522 ft | 440 kts | 5° |
| 2026-04-15 14:44 | 10.76160 | 118.84238 | 23900 ft | 443 kts | 5° |
| 2026-04-15 14:44 | 10.79305 | 118.84458 | 24273 ft | 446 kts | 5° |
| 2026-04-15 14:45 | 10.82441 | 118.84678 | 24629 ft | 449 kts | 5° |
| 2026-04-15 14:45 | 10.85592 | 118.84898 | 24978 ft | 452 kts | 5° |
| 2026-04-15 14:45 | 10.88751 | 118.85120 | 25321 ft | 454 kts | 4° |
| 2026-04-15 14:45 | 10.91915 | 118.85342 | 25657 ft | 456 kts | 4° |
| 2026-04-15 14:46 | 10.95120 | 118.85567 | 25982 ft | 459 kts | 4° |
| 2026-04-15 14:46 | 10.98312 | 118.85789 | 26289 ft | 461 kts | 4° |
| 2026-04-15 14:46 | 11.01529 | 118.86013 | 26587 ft | 464 kts | 4° |
| 2026-04-15 14:46 | 11.04775 | 118.86239 | 26880 ft | 466 kts | 4° |
| 2026-04-15 14:47 | 11.08025 | 118.86465 | 27163 ft | 468 kts | 4° |
| 2026-04-15 14:47 | 11.11324 | 118.86697 | 27440 ft | 470 kts | 4° |
| 2026-04-15 14:47 | 11.14613 | 118.86930 | 27710 ft | 472 kts | 4° |
| 2026-04-15 14:47 | 11.17886 | 118.87164 | 28080 ft | 471 kts | 4° |
| 2026-04-15 14:48 | 11.21164 | 118.87399 | 28441 ft | 471 kts | 4° |
| 2026-04-15 14:48 | 11.24427 | 118.87631 | 28703 ft | 473 kts | 4° |
| 2026-04-15 14:48 | 11.27750 | 118.87865 | 28940 ft | 475 kts | 4° |
| 2026-04-15 14:48 | 11.31051 | 118.88099 | 29196 ft | 477 kts | 4° |
| 2026-04-15 14:49 | 11.34355 | 118.88332 | 29546 ft | 476 kts | 4° |
| 2026-04-15 14:49 | 11.37685 | 118.88567 | 29952 ft | 474 kts | 4° |
| 2026-04-15 14:49 | 11.40937 | 118.88797 | 30352 ft | 472 kts | 4° |
| 2026-04-15 14:49 | 11.44228 | 118.89029 | 30751 ft | 471 kts | 4° |
| 2026-04-15 14:50 | 11.47498 | 118.89259 | 31150 ft | 469 kts | 4° |
| 2026-04-15 14:50 | 11.50758 | 118.89489 | 31532 ft | 468 kts | 4° |
| 2026-04-15 14:50 | 11.53998 | 118.89717 | 31899 ft | 467 kts | 4° |
| 2026-04-15 14:50 | 11.57220 | 118.89945 | 32251 ft | 466 kts | 4° |
| 2026-04-15 14:51 | 11.60473 | 118.90174 | 32594 ft | 465 kts | 4° |
| 2026-04-15 14:51 | 11.63724 | 118.90403 | 32962 ft | 465 kts | 4° |
| 2026-04-15 14:51 | 11.66948 | 118.90630 | 33302 ft | 465 kts | 4° |
| 2026-04-15 14:51 | 11.70174 | 118.90857 | 33609 ft | 465 kts | 4° |
| 2026-04-15 14:52 | 11.73438 | 118.91087 | 33882 ft | 466 kts | 4° |
| 2026-04-15 14:52 | 11.76668 | 118.91316 | 34133 ft | 467 kts | 4° |
| 2026-04-15 14:52 | 11.79943 | 118.91547 | 34378 ft | 468 kts | 4° |
| 2026-04-15 14:52 | 11.83202 | 118.91778 | 34595 ft | 470 kts | 4° |
| 2026-04-15 14:53 | 11.86486 | 118.92011 | 34813 ft | 471 kts | 4° |
| 2026-04-15 14:53 | 11.93035 | 118.92474 | 34877 ft | 471 kts | 4° |
| 2026-04-15 14:54 | 11.99580 | 118.92937 | 34883 ft | 470 kts | 4° |
| 2026-04-15 14:54 | 12.06136 | 118.93401 | 34879 ft | 470 kts | 4° |
| 2026-04-15 14:55 | 12.12648 | 118.93861 | 34879 ft | 470 kts | 4° |
| 2026-04-15 14:55 | 12.19199 | 118.94325 | 34881 ft | 471 kts | 4° |
| 2026-04-15 14:56 | 12.25796 | 118.94792 | 34879 ft | 473 kts | 4° |
| 2026-04-15 14:56 | 12.32358 | 118.95256 | 34874 ft | 472 kts | 4° |
| 2026-04-15 14:57 | 12.38908 | 118.95720 | 34870 ft | 472 kts | 4° |
| 2026-04-15 14:57 | 12.45481 | 118.96186 | 34869 ft | 472 kts | 4° |
| 2026-04-15 14:58 | 12.52048 | 118.96652 | 34870 ft | 472 kts | 4° |
| 2026-04-15 14:58 | 12.58634 | 118.97119 | 34872 ft | 472 kts | 5° |
| 2026-04-15 14:59 | 12.65189 | 118.97585 | 34872 ft | 473 kts | 5° |
| 2026-04-15 14:59 | 12.71847 | 118.98058 | 34876 ft | 473 kts | 4° |
| 2026-04-15 15:00 | 12.78428 | 118.98525 | 34876 ft | 474 kts | 4° |
| 2026-04-15 15:00 | 12.85012 | 118.98990 | 34886 ft | 473 kts | 5° |
| 2026-04-15 15:01 | 12.91597 | 118.99467 | 34895 ft | 472 kts | 6° |
| 2026-04-15 15:01 | 12.97961 | 119.00970 | 34895 ft | 470 kts | 22° |
| 2026-04-15 15:02 | 13.03735 | 119.04125 | 34897 ft | 469 kts | 37° |
| 2026-04-15 15:02 | 13.08484 | 119.08663 | 34888 ft | 468 kts | 51° |
| 2026-04-15 15:03 | 13.12519 | 119.13933 | 34887 ft | 468 kts | 53° |
| 2026-04-15 15:03 | 13.16500 | 119.19209 | 34892 ft | 469 kts | 53° |
| 2026-04-15 15:04 | 13.20497 | 119.24497 | 34900 ft | 469 kts | 53° |
| 2026-04-15 15:04 | 13.24484 | 119.29768 | 34573 ft | 463 kts | 53° |
| 2026-04-15 15:04 | 13.26445 | 119.32360 | 33740 ft | 464 kts | 53° |
| 2026-04-15 15:05 | 13.28441 | 119.35001 | 32548 ft | 471 kts | 53° |
| 2026-04-15 15:05 | 13.30448 | 119.37657 | 31433 ft | 478 kts | 53° |
| 2026-04-15 15:05 | 13.32497 | 119.40371 | 30354 ft | 483 kts | 53° |
| 2026-04-15 15:05 | 13.34541 | 119.43079 | 29333 ft | 485 kts | 52° |
| 2026-04-15 15:06 | 13.38665 | 119.48536 | 27554 ft | 482 kts | 52° |
| 2026-04-15 15:06 | 13.40714 | 119.51247 | 26938 ft | 475 kts | 52° |
| 2026-04-15 15:06 | 13.42703 | 119.53881 | 26385 ft | 467 kts | 52° |
| 2026-04-15 15:07 | 13.44682 | 119.56503 | 25850 ft | 459 kts | 52° |
| 2026-04-15 15:07 | 13.46606 | 119.59053 | 25335 ft | 452 kts | 52° |
| 2026-04-15 15:07 | 13.48516 | 119.61587 | 24816 ft | 446 kts | 52° |
| 2026-04-15 15:07 | 13.50409 | 119.64098 | 24303 ft | 440 kts | 52° |
| 2026-04-15 15:08 | 13.52272 | 119.66575 | 23790 ft | 434 kts | 53° |
| 2026-04-15 15:08 | 13.54089 | 119.69002 | 23285 ft | 429 kts | 53° |
| 2026-04-15 15:08 | 13.55905 | 119.71426 | 22782 ft | 425 kts | 53° |
| 2026-04-15 15:08 | 13.57702 | 119.73821 | 22279 ft | 420 kts | 52° |
| 2026-04-15 15:09 | 13.59477 | 119.76184 | 21778 ft | 416 kts | 52° |
| 2026-04-15 15:09 | 13.61245 | 119.78536 | 21259 ft | 412 kts | 52° |
| 2026-04-15 15:09 | 13.62999 | 119.80869 | 20733 ft | 408 kts | 52° |
| 2026-04-15 15:09 | 13.64730 | 119.83170 | 20213 ft | 404 kts | 52° |
| 2026-04-15 15:10 | 13.66429 | 119.85429 | 19700 ft | 401 kts | 52° |
| 2026-04-15 15:10 | 13.68107 | 119.87698 | 19398 ft | 396 kts | 53° |
| 2026-04-15 15:10 | 13.69759 | 119.89977 | 19160 ft | 395 kts | 53° |
| 2026-04-15 15:10 | 13.71398 | 119.92245 | 18926 ft | 394 kts | 53° |
| 2026-04-15 15:11 | 13.73012 | 119.94476 | 18693 ft | 393 kts | 53° |
| 2026-04-15 15:11 | 13.74655 | 119.96742 | 18456 ft | 392 kts | 53° |
| 2026-04-15 15:11 | 13.76294 | 119.99000 | 18220 ft | 391 kts | 53° |
| 2026-04-15 15:11 | 13.77911 | 120.01229 | 17986 ft | 389 kts | 53° |
| 2026-04-15 15:12 | 13.79531 | 120.03461 | 17751 ft | 387 kts | 53° |
| 2026-04-15 15:12 | 13.81149 | 120.05690 | 17520 ft | 386 kts | 53° |
| 2026-04-15 15:12 | 13.82758 | 120.07906 | 17295 ft | 384 kts | 53° |
| 2026-04-15 15:12 | 13.84353 | 120.10104 | 17066 ft | 382 kts | 53° |
| 2026-04-15 15:13 | 13.85946 | 120.12301 | 16827 ft | 381 kts | 53° |
| 2026-04-15 15:13 | 13.87526 | 120.14480 | 16590 ft | 381 kts | 53° |
| 2026-04-15 15:13 | 13.89118 | 120.16676 | 16358 ft | 381 kts | 53° |
| 2026-04-15 15:13 | 13.90685 | 120.18838 | 16128 ft | 380 kts | 53° |
| 2026-04-15 15:14 | 13.92275 | 120.21031 | 16017 ft | 379 kts | 53° |
| 2026-04-15 15:14 | 13.93853 | 120.23209 | 16013 ft | 380 kts | 53° |
| 2026-04-15 15:14 | 13.95427 | 120.25381 | 16011 ft | 380 kts | 53° |
| 2026-04-15 15:14 | 13.97022 | 120.27583 | 16014 ft | 380 kts | 53° |
| 2026-04-15 15:15 | 13.98602 | 120.29765 | 16009 ft | 380 kts | 53° |
| 2026-04-15 15:15 | 14.00187 | 120.31953 | 16001 ft | 380 kts | 53° |
| 2026-04-15 15:15 | 14.01754 | 120.34120 | 15981 ft | 378 kts | 53° |
| 2026-04-15 15:15 | 14.03310 | 120.36271 | 15696 ft | 373 kts | 53° |
| 2026-04-15 15:16 | 14.04864 | 120.38421 | 15085 ft | 372 kts | 53° |
| 2026-04-15 15:16 | 14.06387 | 120.40527 | 14488 ft | 371 kts | 53° |
| 2026-04-15 15:16 | 14.07925 | 120.42654 | 13918 ft | 369 kts | 53° |
| 2026-04-15 15:16 | 14.09462 | 120.44779 | 13158 ft | 373 kts | 53° |
| 2026-04-15 15:17 | 14.11010 | 120.46915 | 12083 ft | 377 kts | 52° |
| 2026-04-15 15:17 | 14.12666 | 120.49009 | 10673 ft | 381 kts | 46° |
| 2026-04-15 15:17 | 14.14554 | 120.50902 | 9160 ft | 384 kts | 43° |
| 2026-04-15 15:17 | 14.16486 | 120.52750 | 7725 ft | 380 kts | 43° |
| 2026-04-15 15:18 | 14.18369 | 120.54570 | 6645 ft | 365 kts | 44° |
| 2026-04-15 15:18 | 14.20137 | 120.56306 | 5836 ft | 344 kts | 44° |
| 2026-04-15 15:18 | 14.21802 | 120.57958 | 5298 ft | 318 kts | 45° |
| 2026-04-15 15:18 | 14.23333 | 120.59489 | 5029 ft | 288 kts | 45° |
| 2026-04-15 15:19 | 14.24696 | 120.60856 | 4997 ft | 264 kts | 45° |
| 2026-04-15 15:19 | 14.26000 | 120.62170 | 4992 ft | 255 kts | 45° |
| 2026-04-15 15:19 | 14.27238 | 120.63419 | 4986 ft | 238 kts | 45° |
| 2026-04-15 15:19 | 14.28388 | 120.64577 | 4977 ft | 223 kts | 45° |
| 2026-04-15 15:20 | 14.29477 | 120.65676 | 4987 ft | 220 kts | 46° |
| 2026-04-15 15:20 | 14.30578 | 120.66798 | 4993 ft | 220 kts | 46° |
| 2026-04-15 15:20 | 14.31682 | 120.67921 | 4995 ft | 221 kts | 46° |
| 2026-04-15 15:20 | 14.32710 | 120.69096 | 4994 ft | 221 kts | 53° |
| 2026-04-15 15:21 | 14.33586 | 120.70398 | 4944 ft | 221 kts | 60° |
| 2026-04-15 15:21 | 14.34329 | 120.71786 | 4713 ft | 218 kts | 64° |
| 2026-04-15 15:21 | 14.35018 | 120.73183 | 4359 ft | 220 kts | 64° |
| 2026-04-15 15:21 | 14.35723 | 120.74584 | 4056 ft | 219 kts | 63° |
| 2026-04-15 15:22 | 14.36448 | 120.75974 | 3810 ft | 216 kts | 62° |
| 2026-04-15 15:22 | 14.37176 | 120.77330 | 3581 ft | 212 kts | 62° |
| 2026-04-15 15:22 | 14.37900 | 120.78651 | 3350 ft | 208 kts | 61° |
| 2026-04-15 15:22 | 14.38613 | 120.79939 | 3180 ft | 199 kts | 61° |
| 2026-04-15 15:23 | 14.39293 | 120.81157 | 3049 ft | 187 kts | 61° |
| 2026-04-15 15:23 | 14.39939 | 120.82313 | 2952 ft | 184 kts | 60° |
| 2026-04-15 15:23 | 14.40586 | 120.83471 | 2882 ft | 184 kts | 61° |
| 2026-04-15 15:23 | 14.41233 | 120.84631 | 2865 ft | 184 kts | 60° |
| 2026-04-15 15:24 | 14.41844 | 120.85725 | 2827 ft | 168 kts | 61° |
| 2026-04-15 15:24 | 14.42404 | 120.86729 | 2779 ft | 150 kts | 61° |
| 2026-04-15 15:24 | 14.42923 | 120.87660 | 2693 ft | 148 kts | 62° |
| 2026-04-15 15:24 | 14.43431 | 120.88573 | 2505 ft | 146 kts | 62° |
| 2026-04-15 15:25 | 14.43927 | 120.89465 | 2289 ft | 139 kts | 61° |
| 2026-04-15 15:25 | 14.44410 | 120.90335 | 2108 ft | 138 kts | 61° |
| 2026-04-15 15:25 | 14.44885 | 120.91191 | 1938 ft | 138 kts | 60° |
| 2026-04-15 15:25 | 14.45367 | 120.92059 | 1755 ft | 138 kts | 60° |
| 2026-04-15 15:26 | 14.45847 | 120.92921 | 1584 ft | 138 kts | 60° |
| 2026-04-15 15:26 | 14.46327 | 120.93787 | 1411 ft | 137 kts | 61° |
| 2026-04-15 15:26 | 14.46798 | 120.94633 | 1239 ft | 137 kts | 62° |
| 2026-04-15 15:26 | 14.47266 | 120.95474 | 1067 ft | 136 kts | 61° |
| 2026-04-15 15:27 | 14.47738 | 120.96323 | 889 ft | 136 kts | 62° |
| 2026-04-15 15:27 | 14.48213 | 120.97174 | 695 ft | 135 kts | 61° |
| 2026-04-15 15:27 | 14.48687 | 120.98025 | 511 ft | 136 kts | 60° |
| 2026-04-15 15:27 | 14.49156 | 120.98875 | 387 ft | 135 kts | 62° |
| 2026-04-15 15:28 | 14.49626 | 120.99725 | 212 ft | 136 kts | 60° |
| 2026-04-15 15:28 | 14.50095 | 121.00569 | 83 ft | 126 kts | 61° |
| 2026-04-15 15:28 | 14.50441 | 121.01202 | 82 ft | 76 kts | 59° |
| 2026-04-15 15:28 | 14.50621 | 121.01520 | 82 ft | 27 kts | 58° |
| 2026-04-15 15:29 | 14.50713 | 121.01666 | 82 ft | 21 kts | 44° |
| 2026-04-15 15:29 | 14.50821 | 121.01763 | 82 ft | 18 kts | 39° |
| 2026-04-15 15:29 | 14.50864 | 121.01790 | 82 ft | 5 kts | 6° |
| 2026-04-15 15:29 | 14.50899 | 121.01775 | 82 ft | 6 kts | 307° |
| 2026-04-15 15:30 | 14.50898 | 121.01730 | 82 ft | 7 kts | 239° |
| 2026-04-15 15:30 | 14.50879 | 121.01685 | 82 ft | 5 kts | 278° |
| 2026-04-15 15:30 | 14.50903 | 121.01656 | 82 ft | 6 kts | 316° |
| 2026-04-15 15:30 | 14.50937 | 121.01620 | 82 ft | 7 kts | 314° |
| 2026-04-15 15:31 | 14.50978 | 121.01576 | 82 ft | 9 kts | 314° |
| 2026-04-15 15:31 | 14.51028 | 121.01527 | 82 ft | 10 kts | 315° |
| 2026-04-15 15:31 | 14.51073 | 121.01479 | 82 ft | 6 kts | 314° |
| 2026-04-15 15:31 | 14.51087 | 121.01456 | 82 ft | 3 kts | 269° |
| 2026-04-15 15:32 | 14.51075 | 121.01436 | 82 ft | 3 kts | 232° |
| 2026-04-15 15:32 | 14.51065 | 121.01422 | 82 ft | 0 kts | 231° |
| 2026-04-15 15:32 | 14.51060 | 121.01417 | 82 ft | 1 kts | 232° |
| 2026-04-15 15:32 | 14.51055 | 121.01409 | 82 ft | 1 kts | 232° |
| 2026-04-15 15:33 | 14.51051 | 121.01404 | 82 ft | 0 kts | 232° |